TimeCST,TemperatureF,Dew PointF,Humidity,Sea Level PressureIn,VisibilityMPH,Wind Direction,Wind SpeedMPH,Gust SpeedMPH,PrecipitationIn,Events,Conditions,WindDirDegrees,DateUTC
12:15 AM,21.7,16.0,78,29.82,10.0,WNW,18.4,26.5,N/A,,Clear,300,2013-01-12 06:15:00
12:35 AM,21.2,16.3,82,29.82,10.0,WNW,20.7,-,N/A,,Clear,290,2013-01-12 06:35:00
12:55 AM,21.0,15.4,79,29.83,10.0,WNW,20.7,29.9,N/A,,Clear,300,2013-01-12 06:55:00
1:15 AM,20.7,14.7,78,29.84,10.0,WNW,20.7,26.5,N/A,,Clear,300,2013-01-12 07:15:00
1:35 AM,20.3,13.6,75,29.85,10.0,WNW,26.5,29.9,N/A,,Clear,300,2013-01-12 07:35:00
1:55 AM,19.9,12.7,74,29.86,10.0,WNW,23.0,31.1,N/A,,Clear,300,2013-01-12 07:55:00
2:15 AM,19.4,13.1,76,29.87,10.0,WNW,20.7,26.5,N/A,,Clear,290,2013-01-12 08:15:00
2:35 AM,19.2,11.7,72,29.89,10.0,NW,27.6,34.5,N/A,,Clear,310,2013-01-12 08:35:00
2:55 AM,18.5,11.7,75,29.89,10.0,NW,21.9,-,N/A,,Clear,310,2013-01-12 08:55:00
3:15 AM,18.5,12.0,76,29.90,10.0,NW,19.6,-,N/A,,Clear,310,2013-01-12 09:15:00
3:35 AM,18.1,11.1,74,29.92,10.0,NW,18.4,-,N/A,,Clear,310,2013-01-12 09:35:00
3:55 AM,17.6,10.4,73,29.92,10.0,NW,20.7,24.2,N/A,,Clear,310,2013-01-12 09:55:00
4:15 AM,17.4,10.2,73,29.92,10.0,NW,21.9,26.5,N/A,,Clear,310,2013-01-12 10:15:00
4:35 AM,17.1,9.9,73,29.93,10.0,NW,16.1,23.0,N/A,,Clear,310,2013-01-12 10:35:00
4:55 AM,16.7,9.5,73,29.95,10.0,NW,16.1,21.9,N/A,,Clear,310,2013-01-12 10:55:00
5:15 AM,16.3,9.5,74,29.96,10.0,NW,12.7,-,N/A,,Clear,310,2013-01-12 11:15:00
5:35 AM,15.8,9.5,76,29.98,10.0,NW,8.1,-,N/A,,Clear,310,2013-01-12 11:35:00
5:55 AM,15.6,8.8,74,29.97,10.0,NW,13.8,-,N/A,,Clear,320,2013-01-12 11:55:00
6:15 AM,15.1,8.2,74,29.99,10.0,NW,12.7,-,N/A,,Clear,320,2013-01-12 12:15:00
6:35 AM,14.7,6.8,71,29.98,10.0,NW,17.3,-,N/A,,Clear,320,2013-01-12 12:35:00
6:55 AM,14.4,6.4,71,29.99,10.0,NW,11.5,-,N/A,,Clear,320,2013-01-12 12:55:00
7:15 AM,13.8,6.8,74,30.00,10.0,NW,9.2,-,N/A,,Clear,310,2013-01-12 13:15:00
7:35 AM,13.6,6.6,74,30.01,10.0,NW,11.5,-,N/A,,Clear,320,2013-01-12 13:35:00
7:55 AM,13.6,6.1,72,30.02,10.0,NW,12.7,-,N/A,,Clear,310,2013-01-12 13:55:00
8:15 AM,13.6,6.3,72,30.02,10.0,NW,10.4,-,N/A,,Clear,310,2013-01-12 14:15:00
8:35 AM,13.8,4.8,67,30.04,10.0,NW,17.3,24.2,N/A,,Clear,320,2013-01-12 14:35:00
8:55 AM,14.0,4.8,67,30.06,10.0,NW,12.7,-,N/A,,Clear,320,2013-01-12 14:55:00
9:15 AM,14.7,4.6,64,30.08,10.0,WNW,8.1,-,N/A,,Clear,300,2013-01-12 15:15:00
9:35 AM,14.9,3.2,60,30.10,10.0,NW,15.0,18.4,N/A,,Clear,320,2013-01-12 15:35:00
9:55 AM,15.6,5.0,63,30.10,10.0,WNW,11.5,-,N/A,,Clear,290,2013-01-12 15:55:00
10:15 AM,15.8,4.8,62,30.09,10.0,NW,18.4,-,N/A,,Clear,310,2013-01-12 16:15:00
10:35 AM,16.5,5.7,63,30.10,10.0,NW,18.4,24.2,N/A,,Clear,320,2013-01-12 16:35:00
10:55 AM,16.7,5.5,62,30.10,10.0,WNW,17.3,-,N/A,,Clear,290,2013-01-12 16:55:00
11:15 AM,17.4,5.4,59,30.11,10.0,NW,18.4,25.3,N/A,,Clear,310,2013-01-12 17:15:00
11:55 AM,18.5,6.3,59,30.08,10.0,WNW,18.4,24.2,N/A,,Clear,300,2013-01-12 17:55:00
12:15 PM,19.0,7.2,60,30.06,10.0,WNW,20.7,24.2,N/A,,Clear,300,2013-01-12 18:15:00
12:35 PM,18.9,6.6,59,30.06,10.0,WNW,16.1,-,N/A,,Clear,300,2013-01-12 18:35:00
12:55 PM,19.0,7.0,59,30.05,10.0,WNW,17.3,-,N/A,,Scattered Clouds,300,2013-01-12 18:55:00
1:15 PM,19.0,7.3,60,30.05,10.0,NW,21.9,-,N/A,,Scattered Clouds,320,2013-01-12 19:15:00
1:35 PM,18.5,7.2,61,30.05,10.0,NW,21.9,-,N/A,,Scattered Clouds,310,2013-01-12 19:35:00
1:55 PM,18.9,7.9,62,30.05,10.0,NW,16.1,26.5,N/A,,Clear,310,2013-01-12 19:55:00
2:15 PM,19.0,7.7,61,30.04,10.0,NW,20.7,24.2,N/A,,Scattered Clouds,320,2013-01-12 20:15:00
2:35 PM,18.5,7.5,62,30.05,10.0,NNW,23.0,-,N/A,,Scattered Clouds,330,2013-01-12 20:35:00
2:55 PM,18.3,7.2,62,30.05,10.0,NW,17.3,24.2,N/A,,Clear,320,2013-01-12 20:55:00
3:15 PM,17.6,6.4,62,30.05,10.0,NW,20.7,-,N/A,,Clear,310,2013-01-12 21:15:00
3:35 PM,17.6,7.2,64,30.05,10.0,NNW,20.7,-,N/A,,Clear,330,2013-01-12 21:35:00
3:55 PM,17.6,7.2,64,30.05,10.0,NW,19.6,25.3,N/A,,Clear,320,2013-01-12 21:55:00
4:15 PM,17.4,7.5,65,30.05,10.0,NNW,15.0,24.2,N/A,,Clear,340,2013-01-12 22:15:00
4:35 PM,17.1,7.7,67,30.06,10.0,NNW,17.3,-,N/A,,Clear,340,2013-01-12 22:35:00
4:55 PM,16.7,7.7,68,30.07,10.0,NNW,16.1,21.9,N/A,,Clear,330,2013-01-12 22:55:00
5:15 PM,17.2,7.7,66,30.08,10.0,NNW,17.3,-,N/A,,Clear,330,2013-01-12 23:15:00
5:35 PM,17.1,7.5,66,30.08,10.0,NNW,20.7,26.5,N/A,,Clear,330,2013-01-12 23:35:00
5:55 PM,16.5,7.0,66,30.07,10.0,NNW,19.6,-,N/A,,Clear,330,2013-01-12 23:55:00
6:15 PM,16.2,6.4,66,30.09,10.0,NNW,15.0,-,N/A,,Clear,330,2013-01-13 00:15:00
6:35 PM,15.1,6.4,69,30.10,10.0,NNW,13.8,-,N/A,,Clear,340,2013-01-13 00:35:00
7:15 PM,13.6,5.7,71,30.11,10.0,NNW,13.8,19.6,N/A,,Clear,340,2013-01-13 01:15:00
7:35 PM,12.9,5.0,71,30.11,10.0,NNW,12.7,-,N/A,,Clear,340,2013-01-13 01:35:00
7:55 PM,12.6,4.5,70,30.12,10.0,NNW,11.5,-,N/A,,Clear,330,2013-01-13 01:55:00
8:15 PM,12.2,4.6,72,30.12,10.0,NNW,10.4,-,N/A,,Clear,330,2013-01-13 02:15:00
8:35 PM,11.3,4.8,75,30.12,10.0,NNW,8.1,-,N/A,,Clear,330,2013-01-13 02:35:00
8:55 PM,10.8,4.8,77,30.11,10.0,NNW,6.9,-,N/A,,Clear,330,2013-01-13 02:55:00
9:15 PM,11.1,5.0,76,30.10,10.0,NNW,12.7,-,N/A,,Clear,330,2013-01-13 03:15:00
9:35 PM,10.9,5.0,77,30.11,10.0,NNW,11.5,-,N/A,,Clear,340,2013-01-13 03:35:00
9:55 PM,10.4,4.8,78,30.11,10.0,NNW,12.7,-,N/A,,Clear,330,2013-01-13 03:55:00
10:15 PM,10.4,4.6,78,30.11,10.0,NNW,12.7,-,N/A,,Clear,330,2013-01-13 04:15:00
10:35 PM,9.9,4.1,78,30.11,10.0,NNW,10.4,-,N/A,,Clear,330,2013-01-13 04:35:00
10:55 PM,9.5,4.1,79,30.12,10.0,NW,10.4,-,N/A,,Clear,320,2013-01-13 04:55:00
11:15 PM,9.5,3.9,78,30.13,10.0,NW,8.1,-,N/A,,Clear,320,2013-01-13 05:15:00
11:35 PM,8.8,3.6,79,30.13,10.0,NW,6.9,-,N/A,,Clear,310,2013-01-13 05:35:00
11:55 PM,8.6,3.7,81,30.13,10.0,NW,8.1,-,N/A,,Clear,310,2013-01-13 05:55:00